Time;durP1;ratioP1;P1;durP2;ratioP2;P2;SDS_P1;SDS_P2;PMS_P1;PMS_P2;Temp;Humidity;BMP_temperature;BMP_pressure;BME280_temperature;BME280_humidity;BME280_pressure;Samples;Min_cycle;Max_cycle;Signal;HPM_P1;HPM_P2
2022/07/15 00:00:33;;;;;;;1.85;1.75;;;25.50;99.90;;;;;;5065911;28;20198;-80
2022/07/15 00:03:00;;;;;;;2.03;1.83;;;25.50;99.90;;;;;;5069240;28;20218;-80
2022/07/15 00:05:28;;;;;;;1.90;1.80;;;25.60;99.90;;;;;;5067392;28;20194;-81
2022/07/15 00:07:55;;;;;;;2.15;2.00;;;25.60;99.90;;;;;;5067042;28;20226;-80
2022/07/15 00:10:23;;;;;;;3.00;2.03;;;25.70;99.90;;;;;;5069039;28;20247;-80
2022/07/15 00:12:53;;;;;;;2.10;1.90;;;25.70;99.90;;;;;;5068875;28;20317;-80
2022/07/15 00:15:23;;;;;;;1.90;1.80;;;25.70;99.90;;;;;;5058860;28;20195;-81
2022/07/15 00:17:51;;;;;;;1.83;1.73;;;25.70;99.90;;;;;;5067201;28;20223;-81
2022/07/15 00:20:19;;;;;;;2.03;1.92;;;25.70;99.90;;;;;;5066185;28;20198;-80
2022/07/15 00:22:47;;;;;;;2.05;1.95;;;25.70;99.90;;;;;;5069105;28;20214;-81
2022/07/15 00:25:18;;;;;;;2.97;1.98;;;25.70;99.90;;;;;;5071178;28;20715;-82
2022/07/15 00:27:56;;;;;;;2.15;2.05;;;25.70;99.90;;;;;;5072292;28;20593;-81
2022/07/15 00:30:30;;;;;;;2.55;1.80;;;25.60;99.90;;;;;;5069710;28;20547;-81
2022/07/15 00:32:57;;;;;;;2.22;2.03;;;25.60;99.90;;;;;;5064021;28;20580;-80
2022/07/15 00:35:24;;;;;;;2.20;2.10;;;25.50;99.90;;;;;;5065350;28;20289;-81
2022/07/15 00:37:51;;;;;;;2.30;2.00;;;25.50;99.90;;;;;;5064744;28;20627;-82
2022/07/15 00:40:19;;;;;;;2.55;1.95;;;25.50;99.90;;;;;;5073927;28;20205;-81
2022/07/15 00:42:49;;;;;;;2.30;2.10;;;25.40;99.90;;;;;;5058939;28;20215;-83
2022/07/15 00:45:18;;;;;;;2.05;1.85;;;25.30;99.90;;;;;;5070230;28;20198;-81
2022/07/15 00:47:48;;;;;;;2.45;2.20;;;25.30;99.90;;;;;;5064599;28;20229;-80
2022/07/15 00:50:17;;;;;;;3.05;1.90;;;25.30;99.90;;;;;;5062152;28;20643;-78
2022/07/15 00:52:46;;;;;;;5.03;2.55;;;25.30;99.90;;;;;;5064254;28;20225;-79
2022/07/15 00:55:15;;;;;;;2.45;2.25;;;25.40;99.90;;;;;;5062229;28;20205;-79
2022/07/15 00:57:45;;;;;;;2.25;2.05;;;25.40;99.90;;;;;;5057139;28;20218;-78
2022/07/15 01:00:13;;;;;;;3.03;2.30;;;25.40;99.90;;;;;;5057697;28;21461;-78
2022/07/15 01:02:43;;;;;;;2.63;2.15;;;25.40;99.90;;;;;;5058631;28;20241;-78
2022/07/15 01:05:12;;;;;;;2.30;2.10;;;25.50;99.90;;;;;;5065412;28;20538;-79
2022/07/15 01:07:39;;;;;;;3.75;2.28;;;25.40;99.90;;;;;;5065729;28;20221;-79
2022/07/15 01:10:07;;;;;;;2.45;2.25;;;25.40;99.90;;;;;;5061893;28;20612;-79
2022/07/15 01:12:37;;;;;;;3.45;2.42;;;25.30;99.90;;;;;;5064121;28;20230;-79
2022/07/15 01:15:04;;;;;;;2.42;2.22;;;25.30;99.90;;;;;;5091939;22;20376;-74
2022/07/15 01:17:32;;;;;;;2.78;2.58;;;25.30;99.90;;;;;;5075736;28;20221;-74
2022/07/15 01:20:00;;;;;;;2.58;2.33;;;25.20;99.90;;;;;;5085990;28;20248;-75
2022/07/15 01:22:29;;;;;;;3.38;2.25;;;25.20;99.90;;;;;;5083095;28;20217;-75
2022/07/15 01:24:56;;;;;;;2.95;2.40;;;25.10;99.90;;;;;;5082266;28;23134;-74
2022/07/15 01:27:23;;;;;;;4.15;2.50;;;25.10;99.90;;;;;;5080837;28;20228;-75
2022/07/15 01:29:50;;;;;;;2.22;2.10;;;25.10;99.90;;;;;;5079619;28;20656;-74
2022/07/15 01:32:17;;;;;;;2.35;2.10;;;25.10;99.90;;;;;;5078462;28;20319;-73
2022/07/15 01:34:48;;;;;;;2.15;2.00;;;25.00;99.90;;;;;;5081561;28;20200;-74
2022/07/15 01:37:15;;;;;;;2.30;2.20;;;25.00;99.90;;;;;;5079428;28;20254;-75
2022/07/15 01:39:44;;;;;;;2.28;2.17;;;25.00;99.90;;;;;;5082812;28;20212;-73
2022/07/15 01:42:11;;;;;;;2.10;1.92;;;25.00;99.90;;;;;;5083143;28;20748;-74
2022/07/15 01:44:38;;;;;;;2.00;1.90;;;25.00;99.90;;;;;;5081824;28;20282;-75
2022/07/15 01:47:05;;;;;;;2.08;1.98;;;25.00;99.90;;;;;;5080629;28;20287;-74
2022/07/15 01:49:33;;;;;;;2.35;2.15;;;25.00;99.90;;;;;;5080936;28;20248;-74
2022/07/15 01:52:02;;;;;;;3.42;2.50;;;25.00;99.90;;;;;;5080972;28;20209;-74
2022/07/15 01:54:31;;;;;;;2.33;2.00;;;25.00;99.90;;;;;;5082530;28;20206;-75
2022/07/15 01:56:59;;;;;;;2.08;1.98;;;25.00;99.90;;;;;;5081746;28;20193;-74
2022/07/15 01:59:27;;;;;;;2.08;1.98;;;25.00;99.90;;;;;;5085299;28;21503;-74
2022/07/15 02:01:56;;;;;;;3.17;2.05;;;25.00;99.90;;;;;;5081894;28;20201;-75
2022/07/15 02:04:24;;;;;;;2.65;2.30;;;25.00;99.90;;;;;;5082902;28;20201;-74
2022/07/15 02:06:51;;;;;;;2.67;2.42;;;25.00;99.90;;;;;;5085332;28;20699;-75
2022/07/15 02:09:18;;;;;;;2.88;2.10;;;25.00;99.90;;;;;;5085577;28;20555;-74
2022/07/15 02:11:46;;;;;;;2.17;2.08;;;25.00;99.90;;;;;;5090326;28;20198;-75
2022/07/15 02:14:14;;;;;;;2.00;1.90;;;25.00;99.90;;;;;;5085957;28;20233;-75
2022/07/15 02:16:41;;;;;;;3.17;2.35;;;25.00;99.90;;;;;;5082193;28;20221;-75
2022/07/15 02:19:09;;;;;;;2.55;2.35;;;24.90;99.90;;;;;;5086502;28;20283;-72
2022/07/15 02:21:36;;;;;;;2.97;2.53;;;24.90;99.90;;;;;;5085504;28;20237;-75
2022/07/15 02:24:04;;;;;;;2.30;2.10;;;24.90;99.90;;;;;;5091562;28;20249;-76
2022/07/15 02:26:31;;;;;;;2.40;2.20;;;24.90;99.90;;;;;;5087205;28;20275;-75
2022/07/15 02:28:59;;;;;;;2.25;2.15;;;24.80;99.90;;;;;;5089425;28;20226;-75
2022/07/15 02:31:27;;;;;;;2.42;2.20;;;24.80;99.90;;;;;;5088105;28;20209;-75
2022/07/15 02:33:54;;;;;;;3.55;2.55;;;24.80;99.90;;;;;;5087886;28;20221;-75
2022/07/15 02:36:21;;;;;;;2.60;2.40;;;24.70;99.90;;;;;;5087877;28;20221;-75
2022/07/15 02:38:48;;;;;;;2.63;2.42;;;24.70;99.90;;;;;;5087439;28;20210;-75
2022/07/15 02:41:16;;;;;;;2.53;2.35;;;24.80;99.90;;;;;;5093850;28;20194;-75
2022/07/15 02:43:43;;;;;;;2.65;2.45;;;24.70;99.90;;;;;;5088163;28;20228;-75
2022/07/15 02:46:10;;;;;;;2.30;2.20;;;24.70;99.90;;;;;;5090490;28;20226;-75
2022/07/15 02:48:39;;;;;;;2.40;2.30;;;24.60;99.90;;;;;;5085131;28;20226;-74
2022/07/15 02:51:07;;;;;;;2.53;2.20;;;24.60;99.90;;;;;;5092154;28;20208;-75
2022/07/15 02:53:35;;;;;;;2.55;2.30;;;24.60;99.90;;;;;;5091426;28;20640;-73
2022/07/15 02:56:03;;;;;;;2.03;1.83;;;24.60;99.90;;;;;;5088055;28;20213;-74
2022/07/15 02:58:31;;;;;;;2.50;2.30;;;24.60;99.90;;;;;;5087938;28;20221;-75
2022/07/15 03:00:58;;;;;;;3.58;2.22;;;24.60;99.90;;;;;;5088300;28;20198;-74
2022/07/15 03:03:27;;;;;;;2.75;2.35;;;24.60;99.90;;;;;;5086303;28;20221;-75
2022/07/15 03:05:57;;;;;;;3.97;2.53;;;24.60;99.90;;;;;;5081348;28;20222;-75
2022/07/15 03:08:24;;;;;;;2.50;2.17;;;24.60;99.90;;;;;;5084200;28;20321;-75
2022/07/15 03:10:51;;;;;;;2.38;2.20;;;24.50;99.90;;;;;;5088253;28;20230;-75
2022/07/15 03:13:18;;;;;;;2.28;2.17;;;24.50;99.90;;;;;;5081715;28;20595;-74
2022/07/15 03:15:45;;;;;;;2.30;2.20;;;24.50;99.90;;;;;;5088571;28;20233;-74
2022/07/15 03:18:13;;;;;;;2.50;2.30;;;24.50;99.90;;;;;;5084282;28;20214;-75
2022/07/15 03:20:40;;;;;;;2.65;2.45;;;24.50;99.90;;;;;;5084487;28;20284;-75
2022/07/15 03:23:09;;;;;;;2.08;1.95;;;24.40;99.90;;;;;;5084267;28;20214;-76
2022/07/15 03:25:36;;;;;;;2.40;2.20;;;24.40;99.90;;;;;;5086396;28;20210;-75
2022/07/15 03:28:03;;;;;;;2.80;2.53;;;24.40;99.90;;;;;;5083365;28;20218;-74
2022/07/15 03:30:30;;;;;;;2.85;2.65;;;24.40;99.90;;;;;;5089815;28;20227;-75
2022/07/15 03:32:57;;;;;;;2.97;2.50;;;24.40;99.90;;;;;;5083183;28;20225;-75
2022/07/15 03:35:24;;;;;;;2.80;2.60;;;24.30;99.90;;;;;;5084066;28;20218;-74
2022/07/15 03:37:51;;;;;;;4.07;2.38;;;24.30;99.90;;;;;;5083087;28;20209;-75
2022/07/15 03:40:20;;;;;;;2.00;1.90;;;24.30;99.90;;;;;;5078695;28;20283;-75
2022/07/15 03:42:47;;;;;;;2.70;2.50;;;24.30;99.90;;;;;;5084132;28;20217;-75
2022/07/15 03:45:14;;;;;;;2.60;2.38;;;24.20;99.90;;;;;;5082128;28;20636;-75
2022/07/15 03:47:41;;;;;;;2.50;2.35;;;24.20;99.90;;;;;;5084221;28;20222;-75
2022/07/15 03:50:09;;;;;;;4.25;2.80;;;24.20;99.90;;;;;;5087494;28;20217;-75
2022/07/15 03:52:36;;;;;;;2.40;2.30;;;24.20;99.90;;;;;;5087324;28;20225;-76
2022/07/15 03:55:04;;;;;;;3.05;2.35;;;24.20;99.90;;;;;;5088162;28;20232;-75
2022/07/15 03:57:32;;;;;;;3.42;2.38;;;24.20;99.90;;;;;;5085056;28;20218;-76
2022/07/15 03:59:59;;;;;;;2.72;2.53;;;24.20;99.90;;;;;;5084711;28;20671;-75
2022/07/15 04:02:26;;;;;;;2.70;2.50;;;24.20;99.90;;;;;;5084709;28;20221;-75
2022/07/15 04:04:54;;;;;;;2.63;2.47;;;24.10;99.90;;;;;;5088478;28;20217;-75
2022/07/15 04:07:21;;;;;;;2.83;2.40;;;24.20;99.90;;;;;;5086233;28;20275;-74
2022/07/15 04:09:48;;;;;;;2.58;2.40;;;24.20;99.90;;;;;;5085849;28;20208;-74
2022/07/15 04:12:15;;;;;;;2.50;2.30;;;24.20;99.90;;;;;;5086411;28;20756;-75
2022/07/15 04:14:43;;;;;;;2.22;2.13;;;24.10;99.90;;;;;;5085211;28;20201;-75
2022/07/15 04:17:10;;;;;;;2.60;2.40;;;24.10;99.90;;;;;;5087378;28;20224;-74
2022/07/15 04:19:37;;;;;;;2.72;2.30;;;24.20;99.90;;;;;;5087254;28;20213;-75
2022/07/15 04:22:05;;;;;;;2.80;2.60;;;24.20;99.90;;;;;;5084666;28;20221;-75
2022/07/15 04:24:32;;;;;;;2.60;2.40;;;24.20;99.90;;;;;;5086181;28;20726;-73
2022/07/15 04:26:59;;;;;;;2.67;2.47;;;24.30;99.90;;;;;;5084584;28;20198;-75
2022/07/15 04:29:26;;;;;;;2.63;2.42;;;24.30;99.90;;;;;;5084376;28;20217;-75
2022/07/15 04:31:55;;;;;;;2.70;2.50;;;24.30;99.90;;;;;;5086189;28;20198;-75
2022/07/15 04:34:22;;;;;;;2.28;2.10;;;24.40;99.90;;;;;;5082680;28;20198;-75
2022/07/15 04:36:49;;;;;;;2.30;2.20;;;24.40;99.90;;;;;;5081958;28;20300;-75
2022/07/15 04:39:16;;;;;;;2.53;2.33;;;24.40;99.90;;;;;;5086222;28;20633;-75
2022/07/15 04:41:43;;;;;;;2.42;2.22;;;24.50;99.90;;;;;;5088484;28;20189;-75
2022/07/15 04:44:10;;;;;;;2.67;2.47;;;24.60;99.90;;;;;;5085908;28;20189;-75
2022/07/15 04:46:37;;;;;;;2.55;2.35;;;24.60;99.90;;;;;;5085941;28;20606;-75
2022/07/15 04:51:50;;;;;;;2.58;2.38;;;24.70;99.90;;;;;;5081299;28;20283;-76
2022/07/15 04:54:17;;;;;;;2.83;2.60;;;24.80;99.90;;;;;;5077563;28;20194;-73
2022/07/15 04:56:44;;;;;;;3.60;2.58;;;24.90;99.90;;;;;;5086025;28;20322;-76
2022/07/15 04:59:11;;;;;;;3.72;2.80;;;25.00;99.90;;;;;;5081751;28;20652;-75
2022/07/15 05:01:39;;;;;;;2.80;2.60;;;24.90;99.90;;;;;;5083467;28;20832;-75
2022/07/15 05:04:07;;;;;;;2.78;2.50;;;25.00;99.90;;;;;;5085005;28;20243;-75
2022/07/15 05:06:34;;;;;;;2.90;2.70;;;25.10;99.90;;;;;;5086331;28;20225;-75
2022/07/15 05:09:01;;;;;;;2.85;2.40;;;25.10;99.90;;;;;;5082476;28;20738;-75
2022/07/15 05:11:28;;;;;;;2.90;2.70;;;25.00;99.90;;;;;;5083707;28;20698;-75
2022/07/15 05:13:55;;;;;;;2.78;2.58;;;25.00;99.90;;;;;;5076692;28;20723;-74
2022/07/15 05:16:23;;;;;;;5.07;3.35;;;25.10;99.90;;;;;;5084675;28;20214;-74
2022/07/15 05:18:50;;;;;;;3.17;2.85;;;25.20;99.90;;;;;;5083525;28;20220;-76
2022/07/15 05:21:18;;;;;;;2.97;2.78;;;25.20;99.90;;;;;;5084656;28;20213;-75
2022/07/15 05:23:45;;;;;;;3.20;2.90;;;25.10;99.90;;;;;;5082362;28;20213;-76
2022/07/15 05:26:13;;;;;;;3.13;2.83;;;25.10;99.90;;;;;;5086357;28;20217;-78
2022/07/15 05:28:40;;;;;;;3.50;3.20;;;25.20;99.90;;;;;;5082416;28;20711;-76
2022/07/15 05:31:08;;;;;;;3.88;3.10;;;25.20;99.90;;;;;;5085640;28;20261;-76
2022/07/15 05:33:35;;;;;;;3.63;3.33;;;25.00;99.90;;;;;;5081139;28;20225;-75
2022/07/15 05:36:02;;;;;;;3.30;3.03;;;25.10;99.90;;;;;;5087175;28;20221;-75
2022/07/15 05:38:30;;;;;;;3.00;2.80;;;25.10;99.90;;;;;;5082667;28;20210;-76
2022/07/15 05:40:57;;;;;;;3.20;3.00;;;25.10;99.90;;;;;;5085341;28;20194;-75
2022/07/15 05:43:24;;;;;;;3.13;2.83;;;25.10;99.90;;;;;;5084697;28;20236;-76
2022/07/15 05:45:51;;;;;;;3.70;3.28;;;25.10;99.90;;;;;;5083648;28;20236;-76
2022/07/15 05:48:19;;;;;;;3.42;3.13;;;25.20;99.90;;;;;;5084214;28;20232;-76
2022/07/15 05:50:46;;;;;;;3.20;3.00;;;25.10;99.90;;;;;;5082996;28;20339;-75
2022/07/15 05:53:13;;;;;;;3.95;3.65;;;25.20;99.90;;;;;;5088228;28;20244;-76
2022/07/15 05:55:42;;;;;;;5.97;4.03;;;25.20;99.90;;;;;;5086756;28;20222;-76
2022/07/15 05:58:09;;;;;;;5.10;3.30;;;25.20;99.90;;;;;;5082301;28;20247;-75
2022/07/15 06:00:38;;;;;;;3.85;3.38;;;25.30;99.90;;;;;;5086581;28;20213;-75
2022/07/15 06:03:05;;;;;;;4.05;3.65;;;25.40;99.90;;;;;;5085634;28;20267;-75
2022/07/15 06:05:33;;;;;;;3.92;3.53;;;25.40;99.90;;;;;;5088553;28;20709;-76
2022/07/15 06:08:01;;;;;;;3.83;3.47;;;25.40;99.90;;;;;;5089082;28;20220;-76
2022/07/15 06:10:28;;;;;;;3.60;3.30;;;25.50;99.90;;;;;;5085654;28;20198;-76
2022/07/15 06:12:56;;;;;;;3.58;3.28;;;25.60;99.90;;;;;;5089415;28;20236;-75
2022/07/15 06:15:24;;;;;;;4.82;3.70;;;25.60;99.90;;;;;;5084304;28;20230;-75
2022/07/15 06:17:51;;;;;;;5.10;3.67;;;25.50;99.90;;;;;;5083168;28;20304;-77
2022/07/15 06:20:19;;;;;;;3.45;3.22;;;25.60;99.90;;;;;;5074376;28;20194;-76
2022/07/15 06:22:46;;;;;;;4.25;3.50;;;25.80;99.90;;;;;;5084500;28;20221;-75
2022/07/15 06:25:13;;;;;;;4.13;3.55;;;26.00;99.90;;;;;;5081436;28;21016;-76
2022/07/15 06:27:40;;;;;;;4.00;3.70;;;26.30;99.90;;;;;;5081833;28;20687;-75
2022/07/15 06:30:10;;;;;;;4.13;3.72;;;26.30;99.90;;;;;;5076722;28;20225;-77
2022/07/15 06:32:37;;;;;;;3.60;3.30;;;26.30;99.90;;;;;;5080906;28;20225;-76
2022/07/15 06:35:05;;;;;;;3.80;3.50;;;26.20;99.90;;;;;;5079372;28;20687;-75
2022/07/15 06:37:33;;;;;;;4.50;4.10;;;26.20;99.90;;;;;;5079309;28;20226;-75
2022/07/15 06:40:00;;;;;;;4.38;4.07;;;26.10;99.90;;;;;;5082635;28;20194;-76
2022/07/15 06:42:27;;;;;;;4.20;3.90;;;26.10;99.90;;;;;;5077967;28;20216;-75
2022/07/15 06:44:55;;;;;;;4.53;4.20;;;26.20;99.90;;;;;;5069936;28;20635;-77
2022/07/15 06:47:23;;;;;;;4.78;4.35;;;26.50;99.90;;;;;;5078357;28;20229;-76
2022/07/15 06:49:50;;;;;;;4.65;3.90;;;26.60;99.90;;;;;;5076823;28;20340;-77
2022/07/15 06:52:18;;;;;;;4.30;3.90;;;26.60;99.90;;;;;;5084988;28;20224;-75
2022/07/15 06:54:45;;;;;;;4.13;3.83;;;26.60;99.90;;;;;;5080596;28;20497;-75
2022/07/15 06:57:14;;;;;;;4.35;3.95;;;26.60;99.90;;;;;;5083069;28;20225;-76
2022/07/15 06:59:41;;;;;;;4.13;3.83;;;26.70;99.90;;;;;;5079008;28;20194;-76
2022/07/15 07:02:08;;;;;;;3.33;3.13;;;26.80;99.90;;;;;;5078009;28;20258;-76
2022/07/15 07:04:37;;;;;;;4.13;3.80;;;27.10;99.90;;;;;;5077396;28;20209;-76
2022/07/15 07:07:06;;;;;;;3.90;3.60;;;27.40;99.90;;;;;;5081677;28;20225;-77
2022/07/15 07:09:35;;;;;;;3.72;3.42;;;27.50;99.90;;;;;;5075611;28;20214;-77
2022/07/15 07:12:04;;;;;;;4.15;3.65;;;27.50;99.90;;;;;;5074923;28;20230;-75
2022/07/15 07:14:34;;;;;;;6.90;4.18;;;27.80;99.90;;;;;;5078570;28;20200;-75
2022/07/15 07:17:01;;;;;;;3.72;3.45;;;27.80;99.90;;;;;;5060809;28;20197;-75
2022/07/15 07:19:31;;;;;;;5.07;3.80;;;27.80;99.90;;;;;;5104829;22;20237;-79
2022/07/15 07:21:59;;;;;;;5.40;3.30;;;27.80;99.90;;;;;;5079577;28;20208;-77
2022/07/15 07:24:26;;;;;;;4.00;3.70;;;27.80;99.90;;;;;;5082195;28;20197;-79
2022/07/15 07:26:53;;;;;;;3.88;3.65;;;27.90;99.90;;;;;;5079437;28;20217;-80
2022/07/15 07:29:22;;;;;;;4.25;3.75;;;27.80;99.90;;;;;;5078191;28;20222;-77
2022/07/15 07:31:49;;;;;;;3.65;3.35;;;27.80;99.90;;;;;;5064130;28;20206;-79
2022/07/15 07:34:17;;;;;;;4.30;4.00;;;27.80;99.90;;;;;;5050513;28;20574;-80
2022/07/15 07:36:44;;;;;;;3.88;3.45;;;27.90;99.90;;;;;;5064744;28;20727;-80
2022/07/15 07:39:13;;;;;;;5.28;4.15;;;28.00;99.90;;;;;;5067769;28;20563;-77
2022/07/15 07:41:41;;;;;;;5.15;3.55;;;28.10;99.90;;;;;;5063264;28;20696;-80
2022/07/15 07:44:08;;;;;;;5.40;4.05;;;28.20;99.90;;;;;;5064959;28;20230;-78
2022/07/15 07:46:35;;;;;;;3.92;3.63;;;28.10;99.90;;;;;;5064263;28;20205;-78
2022/07/15 07:49:03;;;;;;;4.40;4.05;;;28.10;99.90;;;;;;5064625;28;20424;-79
2022/07/15 07:51:30;;;;;;;4.75;4.35;;;28.20;99.90;;;;;;5060386;28;20554;-81
2022/07/15 07:53:58;;;;;;;4.50;4.10;;;28.20;99.90;;;;;;5061297;28;20222;-77
2022/07/15 07:56:26;;;;;;;4.10;3.75;;;28.30;99.90;;;;;;5057705;28;20241;-79
2022/07/15 07:58:53;;;;;;;4.20;3.80;;;28.40;99.90;;;;;;5064660;28;20214;-79
2022/07/15 08:01:20;;;;;;;3.97;3.60;;;28.60;99.90;;;;;;5057852;28;20195;-77
2022/07/15 08:03:47;;;;;;;4.22;3.70;;;28.70;99.90;;;;;;5057928;28;20230;-78
2022/07/15 08:06:14;;;;;;;4.50;3.47;;;28.70;99.90;;;;;;5065220;28;20194;-80
2022/07/15 08:08:41;;;;;;;8.95;3.95;;;28.80;99.90;;;;;;5065803;28;20231;-79
2022/07/15 08:11:09;;;;;;;4.00;3.70;;;28.90;99.90;;;;;;5061516;28;20228;-78
2022/07/15 08:13:38;;;;;;;4.50;4.15;;;29.10;99.90;;;;;;5060590;28;20310;-79
2022/07/15 08:16:06;;;;;;;5.40;4.15;;;29.10;99.90;;;;;;5060096;28;20204;-79
2022/07/15 08:18:33;;;;;;;4.65;4.25;;;29.10;99.90;;;;;;5059786;28;20232;-78
2022/07/15 08:21:03;;;;;;;4.18;3.88;;;29.00;99.90;;;;;;5059588;28;20222;-79
2022/07/15 08:23:31;;;;;;;3.80;3.50;;;29.10;99.90;;;;;;5066839;28;20222;-78
2022/07/15 08:25:58;;;;;;;4.60;4.20;;;29.20;99.90;;;;;;5068169;28;20198;-78
2022/07/15 08:28:25;;;;;;;4.45;3.95;;;29.30;99.90;;;;;;5066863;28;20214;-79
2022/07/15 08:30:54;;;;;;;5.47;3.83;;;29.40;99.90;;;;;;5068276;28;20835;-81
2022/07/15 08:33:21;;;;;;;6.20;4.65;;;29.50;99.90;;;;;;5063475;28;20219;-79
2022/07/15 08:35:48;;;;;;;4.35;3.40;;;29.70;99.90;;;;;;5067879;28;20198;-80
2022/07/15 08:38:15;;;;;;;4.68;4.10;;;29.60;99.90;;;;;;5059557;28;20276;-80
2022/07/15 08:40:43;;;;;;;4.20;3.80;;;29.60;99.90;;;;;;5060854;28;20206;-79
2022/07/15 08:43:12;;;;;;;5.32;4.35;;;29.80;99.90;;;;;;5064894;28;20291;-79
2022/07/15 08:45:42;;;;;;;4.72;4.20;;;30.00;99.90;;;;;;5064281;28;20198;-80
2022/07/15 08:48:12;;;;;;;5.35;4.45;;;30.00;99.90;;;;;;5065542;28;20218;-80
2022/07/15 08:50:39;;;;;;;4.55;4.15;;;30.00;99.90;;;;;;5061496;28;20221;-80
2022/07/15 08:53:06;;;;;;;4.85;4.40;;;30.10;99.90;;;;;;5064267;28;20218;-80
2022/07/15 08:55:33;;;;;;;4.40;4.10;;;30.10;99.90;;;;;;5067158;28;20194;-80
2022/07/15 08:58:00;;;;;;;4.20;3.85;;;30.20;99.90;;;;;;5073225;28;20214;-79
2022/07/15 09:00:31;;;;;;;4.32;3.92;;;30.20;99.90;;;;;;5068085;28;20246;-79
2022/07/15 09:03:00;;;;;;;4.95;3.95;;;30.40;99.90;;;;;;5065488;28;20220;-79
2022/07/15 09:05:32;;;;;;;4.32;3.83;;;30.50;99.90;;;;;;5063684;28;20273;-77
2022/07/15 09:08:02;;;;;;;3.40;3.20;;;30.70;99.90;;;;;;5061652;28;20917;-79
2022/07/15 09:10:44;;;;;;;5.13;4.10;;;30.80;99.90;;;;;;5065646;28;20214;-79
2022/07/15 09:13:11;;;;;;;4.55;4.15;;;30.90;99.90;;;;;;5062255;28;20217;-80
2022/07/15 09:15:41;;;;;;;4.75;4.13;;;31.00;99.90;;;;;;5060426;28;20194;-80
2022/07/15 09:18:13;;;;;;;4.03;3.72;;;31.00;99.90;;;;;;5056190;28;20625;-80
2022/07/15 09:20:44;;;;;;;3.75;3.40;;;31.10;99.90;;;;;;5061355;28;20670;-80
2022/07/15 09:23:12;;;;;;;4.13;3.72;;;31.20;99.90;;;;;;5060743;28;20214;-80
2022/07/15 09:25:40;;;;;;;4.45;3.78;;;31.30;99.90;;;;;;5059820;28;20206;-79
2022/07/15 09:28:09;;;;;;;4.85;3.78;;;31.10;99.90;;;;;;5054853;28;20224;-80
2022/07/15 09:33:38;;;;;;;4.28;3.92;;;31.00;99.90;;;;;;5061876;28;20216;-78
2022/07/15 09:39:08;;;;;;;6.97;4.03;;;31.20;99.90;;;;;;5061232;28;20656;-78
2022/07/15 09:41:37;;;;;;;3.83;3.55;;;31.50;99.90;;;;;;5060054;28;20200;-79
2022/07/15 09:44:06;;;;;;;4.00;3.70;;;31.70;99.90;;;;;;5060603;28;20221;-77
2022/07/15 09:46:45;;;;;;;4.75;3.80;;;32.00;99.90;;;;;;5058191;28;20194;-76
2022/07/15 09:49:15;;;;;;;5.40;3.85;;;32.20;99.90;;;;;;5061455;28;20233;-80
2022/07/15 09:51:48;;;;;;;4.30;4.00;;;32.10;99.90;;;;;;5061350;28;20199;-77
2022/07/15 09:54:19;;;;;;;4.53;4.13;;;31.90;99.90;;;;;;5062923;28;20223;-78
2022/07/15 09:56:47;;;;;;;4.68;3.75;;;31.80;99.90;;;;;;5055914;28;20190;-77
2022/07/15 09:59:14;;;;;;;4.50;4.10;;;31.80;99.90;;;;;;5062678;28;20746;-78
2022/07/15 10:01:42;;;;;;;4.78;3.80;;;31.90;99.90;;;;;;5062082;28;20948;-78
2022/07/15 10:04:10;;;;;;;6.93;4.40;;;32.00;99.90;;;;;;5060198;28;20234;-78
2022/07/15 10:06:39;;;;;;;3.92;3.67;;;32.10;99.90;;;;;;5059979;28;20225;-79
2022/07/15 10:09:09;;;;;;;4.20;3.78;;;32.30;99.90;;;;;;5060167;28;20222;-78
2022/07/15 10:11:43;;;;;;;6.95;3.97;;;32.60;99.90;;;;;;5058173;28;20195;-78
2022/07/15 10:14:32;;;;;;;4.40;4.00;;;32.60;99.90;;;;;;5049969;28;20302;-77
2022/07/15 10:17:32;;;;;;;4.35;3.83;;;32.60;99.90;;;;;;5059316;28;20200;-78
2022/07/15 10:20:32;;;;;;;3.80;3.50;;;32.60;99.90;;;;;;5043321;28;20211;-78
2022/07/15 10:23:12;;;;;;;4.53;3.85;;;32.60;99.90;;;;;;5056254;28;20250;-78
2022/07/15 10:26:02;;;;;;;4.18;3.70;;;33.00;99.90;;;;;;5056151;28;20206;-78
2022/07/15 10:28:49;;;;;;;4.18;3.58;;;33.20;99.90;;;;;;5060560;28;20225;-78
2022/07/15 10:31:19;;;;;;;4.20;3.80;;;33.30;99.90;;;;;;5063799;28;20718;-78
2022/07/15 10:34:16;;;;;;;4.30;3.40;;;33.40;99.90;;;;;;5065318;28;20218;-77
2022/07/15 10:37:00;;;;;;;4.05;3.63;;;33.50;99.90;;;;;;5060674;28;20225;-78
2022/07/15 10:39:29;;;;;;;4.63;3.63;;;33.50;99.90;;;;;;5068317;28;20218;-79
2022/07/15 10:41:59;;;;;;;3.72;3.22;;;33.60;99.90;;;;;;5065197;28;20206;-79
2022/07/15 10:44:28;;;;;;;3.90;3.60;;;33.60;99.90;;;;;;5064928;28;20230;-78
2022/07/15 10:47:28;;;;;;;3.70;3.40;;;33.50;99.90;;;;;;5059126;28;20194;-79
2022/07/15 10:49:55;;;;;;;3.63;3.15;;;33.50;99.90;;;;;;4979856;28;20213;-78
2022/07/15 10:52:24;;;;;;;3.30;3.03;;;33.70;99.90;;;;;;4976836;28;20219;-79
2022/07/15 10:55:00;;;;;;;3.00;2.80;;;34.00;99.90;;;;;;5025419;28;20221;-78
2022/07/15 10:57:54;;;;;;;3.75;2.92;;;34.40;99.90;;;;;;5056783;28;20237;-78
2022/07/15 11:00:30;;;;;;;3.10;2.90;;;34.40;99.00;;;;;;5061689;28;20226;-78
2022/07/15 11:03:06;;;;;;;5.03;2.80;;;34.50;96.50;;;;;;5061479;28;20222;-79
2022/07/15 11:05:35;;;;;;;3.22;3.00;;;34.50;96.00;;;;;;5060831;28;20209;-78
2022/07/15 11:09:52;;;;;;;3.95;2.50;;;34.60;95.50;;;;;;5111622;27;20296;-78
2022/07/15 11:12:21;;;;;;;2.45;2.25;;;34.70;95.50;;;;;;5094963;28;20249;-77
2022/07/15 11:14:53;;;;;;;2.30;2.20;;;34.80;93.60;;;;;;5072691;28;20563;-78
2022/07/15 11:17:24;;;;;;;3.28;2.30;;;35.00;93.70;;;;;;5071931;28;20292;-78
2022/07/15 11:19:54;;;;;;;3.28;2.60;;;35.20;94.10;;;;;;5069781;28;20232;-78
2022/07/15 11:22:23;;;;;;;3.38;2.53;;;35.30;93.60;;;;;;5073602;28;20228;-79
2022/07/15 11:24:52;;;;;;;3.20;2.33;;;35.20;92.90;;;;;;5075394;28;20197;-78
2022/07/15 11:27:19;;;;;;;2.63;2.42;;;35.20;91.60;;;;;;5075763;28;20249;-78
2022/07/15 11:29:50;;;;;;;2.15;1.90;;;35.10;91.70;;;;;;5075610;28;20220;-78
2022/07/15 11:32:19;;;;;;;1.98;1.77;;;35.20;88.90;;;;;;5071051;28;20514;-78
2022/07/15 11:34:47;;;;;;;2.05;1.95;;;35.40;88.30;;;;;;5076050;28;20224;-77
2022/07/15 11:37:18;;;;;;;2.22;2.03;;;35.40;86.40;;;;;;5069480;28;20218;-77
2022/07/15 11:39:49;;;;;;;3.20;1.80;;;35.50;86.10;;;;;;5070805;28;20292;-77
2022/07/15 11:45:09;;;;;;;1.65;1.55;;;35.60;80.10;;;;;;5068555;28;20291;-80
2022/07/15 11:47:50;;;;;;;1.95;1.67;;;35.80;84.10;;;;;;5072755;28;20221;-80
2022/07/15 11:50:19;;;;;;;2.42;2.10;;;35.80;84.40;;;;;;5071464;28;20221;-78
2022/07/15 11:52:47;;;;;;;2.63;1.75;;;36.00;84.50;;;;;;5067439;28;20819;-81
2022/07/15 11:55:14;;;;;;;2.42;1.80;;;36.10;83.00;;;;;;5069203;28;20285;-79
2022/07/15 11:57:46;;;;;;;1.92;1.67;;;36.30;80.60;;;;;;5070888;28;20225;-77
2022/07/15 12:00:15;;;;;;;2.22;1.40;;;36.40;78.80;;;;;;5067652;28;20222;-79
2022/07/15 12:02:42;;;;;;;1.30;1.20;;;36.20;76.90;;;;;;5069413;28;20973;-78
2022/07/15 12:05:10;;;;;;;1.50;1.40;;;36.40;77.40;;;;;;5073190;28;20229;-79
2022/07/15 12:07:45;;;;;;;1.85;1.30;;;36.40;73.80;;;;;;5068006;28;20585;-77
2022/07/15 12:10:13;;;;;;;1.98;1.52;;;36.30;71.30;;;;;;5074560;28;20225;-79
2022/07/15 12:12:54;;;;;;;1.27;1.10;;;36.30;73.10;;;;;;5071347;28;20312;-79
2022/07/15 12:15:22;;;;;;;1.75;1.30;;;36.60;73.90;;;;;;5073816;28;20279;-80
2022/07/15 12:17:49;;;;;;;1.45;1.35;;;36.90;72.90;;;;;;5069858;28;20770;-79
2022/07/15 12:20:17;;;;;;;2.38;1.67;;;37.00;74.30;;;;;;5061870;28;20221;-80
2022/07/15 12:23:02;;;;;;;1.65;1.55;;;36.90;76.90;;;;;;5060054;28;20226;-82
2022/07/15 12:25:29;;;;;;;1.85;1.75;;;36.70;76.60;;;;;;5061614;28;20214;-80
2022/07/15 12:27:57;;;;;;;1.58;1.48;;;36.90;78.30;;;;;;5056222;28;20230;-81
2022/07/15 12:30:32;;;;;;;1.83;1.73;;;37.10;77.60;;;;;;5057807;28;20219;-80
2022/07/15 12:33:14;;;;;;;1.77;1.67;;;37.00;79.60;;;;;;5059429;28;20283;-79
2022/07/15 12:35:42;;;;;;;1.95;1.85;;;37.10;78.30;;;;;;5063651;28;20216;-81
2022/07/15 12:38:09;;;;;;;2.00;1.90;;;36.90;79.10;;;;;;5066442;28;20225;-82
2022/07/15 12:40:36;;;;;;;3.15;1.70;;;36.90;78.80;;;;;;5062371;28;20202;-85
2022/07/15 12:43:04;;;;;;;2.97;1.70;;;37.00;79.80;;;;;;5068447;28;20217;-80
2022/07/15 12:45:37;;;;;;;1.80;1.70;;;37.30;78.80;;;;;;5059591;28;20194;-81
2022/07/15 12:48:06;;;;;;;3.80;1.98;;;37.20;74.80;;;;;;5062374;28;20214;-78
2022/07/15 12:50:36;;;;;;;1.77;1.60;;;37.20;75.20;;;;;;5056313;28;20201;-81
2022/07/15 12:53:04;;;;;;;2.67;1.73;;;37.30;77.30;;;;;;5057191;28;20225;-77
2022/07/15 12:55:33;;;;;;;2.72;2.00;;;37.10;73.30;;;;;;5059180;28;20213;-79
2022/07/15 12:58:06;;;;;;;2.85;2.00;;;37.00;72.00;;;;;;5047192;28;20231;-81
2022/07/15 13:00:34;;;;;;;2.17;1.98;;;36.80;70.50;;;;;;5042161;28;20199;-80
2022/07/15 13:03:05;;;;;;;2.45;1.58;;;36.90;70.90;;;;;;5037228;28;20234;-80
2022/07/15 13:05:34;;;;;;;1.90;1.80;;;37.20;70.30;;;;;;5038951;28;20729;-80
2022/07/15 13:08:02;;;;;;;2.55;2.00;;;37.10;70.40;;;;;;5037548;28;20223;-79
2022/07/15 13:10:31;;;;;;;3.50;1.98;;;36.90;69.00;;;;;;5036316;28;20222;-80